< < Back
Terminal Aerodrome Forecast


Current Version              Previous Versions:   1  2  3  4  5  6  7  8  9  

Terminal Aerodrome Forecast

858
FTUS42 KFFC 220810 AAA
TAFATL
TAF AMD
KATL 220810Z 2208/2312 08007KT P6SM FEW250
     FM221500 09008KT P6SM FEW030 SCT250
     FM222000 09010KT P6SM BKN040
     FM230200 10008KT P6SM BKN027
     FM230600 10009KT P6SM OVC016
     FM231000 08010KT 5SM -RA BR OVC008=

Latest METAR

660
SAUS70 KWBC 221600
MTRATL
METAR KATL 221552Z 09008KT 10SM FEW250 10/M04 A3045 RMK AO2 PK WND
16029/1501 SLP314 T01001039


USA.gov is the U.S. government's official web portal to all federal, state and local government web resources and services.